Flight Track Log - Related Links

Times and Time Zones

All times are in EDT time to prevent confusion due to time zone crossing. See the FIN666 flight status page for this flight to view local times or setup timezone preferences in your user account.

Time Position Orientation Groundspeed Altitude Reporting Facility
EDT Latitude Longitude Course Direction KTS MPH feet Rate Location/Type
Tue 08:19:00 AM 55.8592 13.1550 49° Northeast  Level Estimated
Tue 08:20:00 AM 55.9392 13.3227 50° Northeast  Level Estimated
Tue 08:21:00 AM 56.0189 13.4911 50° Northeast  Level Estimated
Tue 08:22:00 AM 56.0985 13.6603 50° Northeast  Level Estimated
Tue 08:23:00 AM 56.1777 13.8301 50° Northeast  Level Estimated
Tue 08:24:00 AM 56.2568 14.0006 50° Northeast  Level Estimated
Tue 08:25:00 AM 56.3381 14.1772 50° Northeast  Level Estimated
Tue 08:26:00 AM 56.4192 14.3547 50° Northeast  Level Estimated
Tue 08:27:00 AM 56.5000 14.5328 51° Northeast  Level Estimated
Tue 08:28:00 AM 56.5805 14.7118 51° Northeast  Level Estimated
Tue 08:29:00 AM 56.6608 14.8915 51° Northeast  Level Estimated
Tue 08:30:00 AM 56.7409 15.0719 51° Northeast  Level Estimated
Tue 08:31:00 AM 56.8206 15.2531 51° Northeast  Level Estimated
Tue 08:32:00 AM 56.9002 15.4352 51° Northeast  Level Estimated
Tue 08:33:00 AM 56.9794 15.6179 51° Northeast  Level Estimated
Tue 08:34:00 AM 57.0584 15.8015 52° Northeast  Level Estimated
Tue 08:35:00 AM 57.1371 15.9858 52° Northeast  Level Estimated
Tue 08:36:00 AM 57.2155 16.1709 52° Northeast  Level Estimated
Tue 08:37:00 AM 57.2937 16.3569 52° Northeast  Level Estimated
Tue 08:38:00 AM 57.3716 16.5436 52° Northeast  Level Estimated
Tue 08:39:00 AM 57.4492 16.7311 52° Northeast  Level Estimated
Tue 08:40:00 AM 57.5265 16.9193 53° Northeast  Level Estimated
Tue 08:41:00 AM 57.6036 17.1084 53° Northeast  Level Estimated
Tue 08:42:00 AM 57.6804 17.2983 53° Northeast  Level Estimated
Tue 08:43:00 AM 57.7568 17.4890 53° Northeast  Level Estimated
Tue 08:44:00 AM 57.8330 17.6805 53° Northeast  Level Estimated
Tue 08:45:00 AM 57.9089 17.8728 53° Northeast  Level Estimated
Tue 08:46:00 AM 57.9845 18.0660 54° Northeast  Level Estimated
Tue 08:47:00 AM 58.0598 18.2599 54° Northeast  Level Estimated
Tue 08:48:00 AM 58.1349 18.4547 54° Northeast  Level Estimated
Tue 08:49:00 AM 58.2096 18.6502 54° Northeast  Level Estimated
Tue 08:50:00 AM 58.2840 18.8466 54° Northeast  Level Estimated
Tue 08:51:00 AM 58.3581 19.0439 54° Northeast  Level Estimated
Tue 08:52:00 AM 58.4319 19.2419 54° Northeast  Level Estimated
Tue 08:53:00 AM 58.5055 19.4408 55° Northeast  Level Estimated
Tue 08:54:00 AM 58.5787 19.6405 55° Northeast  Level Estimated
Tue 08:55:00 AM 58.6516 19.8411 55° Northeast  Level Estimated
Tue 08:56:00 AM 58.7241 20.0425 55° Northeast  Level Estimated
Tue 08:57:00 AM 58.7964 20.2447 55° Northeast  Level Estimated
Tue 08:58:00 AM 58.8683 20.4478 56° Northeast  Level Estimated
Tue 08:59:00 AM 58.9399 20.6517 56° Northeast  Level Estimated
Tue 09:00:00 AM 59.0112 20.8565 56° Northeast  Level Estimated
Tue 09:01:00 AM 59.0822 21.0621 56° Northeast  Level Estimated
Tue 09:02:00 AM 59.1529 21.2685 56° Northeast  Level Estimated
Tue 09:03:00 AM 59.2232 21.4758 56° Northeast  Level Estimated
Tue 09:04:00 AM 59.2932 21.6840 57° Northeast  Level Estimated
Tue 09:05:00 AM 59.3629 21.8930 57° Northeast  Level Estimated
Tue 09:06:00 AM 59.4322 22.1029 57° Northeast  Level Estimated
Tue 09:07:00 AM 59.5011 22.3137 57° Northeast  Level Estimated
Tue 09:08:00 AM 59.5698 22.5253 57° Northeast  Level Estimated
Tue 09:09:00 AM 59.6381 22.7377 57° Northeast  Level Estimated
Tue 09:10:00 AM 59.7061 22.9511 58° Northeast  Level Estimated
Tue 09:11:00 AM 59.7737 23.1653 58° Northeast  Level Estimated
Tue 09:12:00 AM 59.8409 23.3803 58° Northeast  Level Estimated
Tue 09:13:00 AM 59.9078 23.5963 58° Northeast  Level Estimated
Tue 09:14:00 AM 59.9744 23.8131 58° Northeast  Level Estimated
Tue 09:15:00 AM 60.0406 24.0307 59° Northeast  Level Estimated
Tue 09:16:00 AM 60.1064 24.2493 59° Northeast  Level Estimated
Tue 09:17:00 AM 60.1719 24.4687 59° Northeast  Level Estimated
Tue 09:18:00 AM 60.2370 24.6890 59° Northeast  Level Estimated
Tue 09:19:00 AM 60.3018 24.9102 59° Northeast  Level Estimated
Tue 09:20:00 AM 60.3172 24.9633 60° Northeast  Level Estimated
Tue 09:21:00 AM 60.3172 24.9633 37° Northeast  Level Estimated
Tue 09:22:00 AM 60.3172 24.9633 37° Northeast  Level Estimated
Tue 09:23:00 AM 60.3172 24.9633 37° Northeast  Level Estimated
Tue 09:24:00 AM 60.3172 24.9633 37° Northeast  Level Estimated
Tue 09:25:00 AM 60.3172 24.9633 37° Northeast  Level Estimated
Tue 09:26:00 AM 60.3172 24.9633 37° Northeast  Level Estimated
Tue 09:27:00 AM 60.3172 24.9633 37° Northeast  Level Estimated
Tue 09:28:00 AM 60.3172 24.9633 37° Northeast  Level Estimated
Tue 09:29:00 AM 60.3172 24.9633 37° Northeast  Level Estimated
Tue 09:30:00 AM 60.3172 24.9633 37° Northeast  Level Estimated
Tue 09:31:00 AM 60.3172 24.9633 37° Northeast  Level Estimated

Login

Don't have an account? Register now (free) for customized features, flight alerts, and more!